Ana Sayfa
METAR-TAF:

METAR-TAF

Havaalanları :

Central Park

New York, New York, Amerika Birleşik Devletleri

Enlem: 40-47-00N, Boylam: 073-58-00W, yükseklik: 47 m

Güncel hava durumu gözlemi

Rapor saat 15:51 UTC de 36 dakika önce yapıldı.
Rüzgar batı/kuzeybatıdan 11 kt ve 18 kt'a kadar ani rüzgarlar
Sıcaklık 10°C
Nem 40%
Basınç 1006 hPa
Görüş mesafesi: 16.1 km
4700 ft yükseklikte parçalı çok bulutlu

METAR: KNYC 021551Z AUTO 29011G18KT 10SM BKN047 10/M03 A2971 RMK AO2 SLP053 T01001028

Saat: 12:27 (16:27 UTC)


TAF: eksik

4.000'den fazla havaalanı için hava durumu gözlemleri ve tahminleri (METAR ve TAF raporları).

Kullanılabilir istasyonlar harita üzerinde sarı ve kırmızı noktalarla gösterilir.

İstasyonun adını görmek için fareyi noktanın üzerinde gezdirin.

Sonrasında hava gözlem ve tahminlerini görmek için tıklayın.

Haritayı değiştirmek için: yaklaştırmak için siyah artı işaretli yeşil düğmeye ve uzaklaştırmak için de eksi işaretli düğmeye hızla tıklayın; bitişik haritalar için yeşil okları kullanın.


METAR-TAF: